Young, Canada
Current Conditions -  °F | °C
As of 12:00 PM on Wednesday 26 Nov 2014 (Local Time) from CYXE Reporting Station
Light Snow Light Snow  
Wind Chill: -9°   Ceiling: 2500
Heat Index:   Visibility: 15mi
Dew Point:   Wind: 9mph
Humidity: 78%   Direction: 190°S
Pressure: 30.41"   Gusts: NA
Location:  51.77°N, 105.75°W
Report Text: CYXE 261800Z 19008KT 15SM -SN BKN025 M15/M18 A3041 RMK SC7 SLP348
Loading
Personal Weather Stations






























Interactive Weather Map New forecast layout! Learn more

10-Day Weather Forecast

Advertisements
Track Severe Weather on mobile